Time;durP1;ratioP1;P1;durP2;ratioP2;P2;SDS_P1;SDS_P2;PMS_P1;PMS_P2;Temp;Humidity;BMP_temperature;BMP_pressure;BME280_temperature;BME280_humidity;BME280_pressure;Samples;Min_cycle;Max_cycle;Signal;HPM_P1;HPM_P2
2021/04/25 00:01:21;;;;;;;15.28;6.35;;;7.00;66.30;;;;;;1777236;80;21572;-75
2021/04/25 00:03:49;;;;;;;15.70;7.72;;;7.10;65.80;;;;;;1766912;80;21544;-74
2021/04/25 00:06:18;;;;;;;11.38;5.30;;;7.00;66.10;;;;;;1772310;80;21181;-74
2021/04/25 00:08:45;;;;;;;14.87;5.87;;;7.00;66.70;;;;;;1787631;80;21615;-74
2021/04/25 00:11:13;;;;;;;12.18;5.62;;;6.90;66.50;;;;;;1772128;80;21132;-74
2021/04/25 00:13:43;;;;;;;15.45;7.08;;;6.90;67.30;;;;;;1767220;80;21159;-74
2021/04/25 00:16:11;;;;;;;17.92;7.22;;;6.80;66.70;;;;;;1767474;80;21155;-74
2021/04/25 00:18:39;;;;;;;15.90;6.83;;;6.70;67.10;;;;;;1767333;80;21657;-75
2021/04/25 00:21:08;;;;;;;13.13;6.60;;;6.70;67.70;;;;;;1766638;80;21152;-74
2021/04/25 00:23:37;;;;;;;11.80;6.53;;;6.60;67.60;;;;;;1782679;80;21148;-74
2021/04/25 00:26:05;;;;;;;15.68;6.45;;;6.60;68.50;;;;;;1767165;80;21301;-75
2021/04/25 00:28:32;;;;;;;15.43;6.03;;;6.60;68.40;;;;;;1792623;80;21635;-75
2021/04/25 00:31:00;;;;;;;14.53;7.20;;;6.60;68.70;;;;;;1776831;80;21598;-75
2021/04/25 00:33:28;;;;;;;17.42;7.80;;;6.60;68.20;;;;;;1782713;80;21148;-75
2021/04/25 00:35:57;;;;;;;16.60;7.70;;;6.50;67.70;;;;;;1781368;80;21171;-75
2021/04/25 00:38:25;;;;;;;21.45;8.70;;;6.50;68.10;;;;;;1781368;80;21164;-74
2021/04/25 00:40:53;;;;;;;16.30;8.38;;;6.50;67.60;;;;;;1788353;80;21188;-75
2021/04/25 00:43:21;;;;;;;20.32;8.65;;;6.40;68.00;;;;;;1778225;80;21160;-75
2021/04/25 00:45:49;;;;;;;14.93;7.28;;;6.40;68.20;;;;;;1793387;80;21180;-74
2021/04/25 00:48:17;;;;;;;15.40;7.58;;;6.40;68.60;;;;;;1792175;80;21165;-75
2021/04/25 00:50:45;;;;;;;15.08;7.28;;;6.50;67.70;;;;;;1786525;80;21232;-75
2021/04/25 00:53:12;;;;;;;18.40;6.58;;;6.50;67.40;;;;;;1788011;80;21187;-76
2021/04/25 00:55:40;;;;;;;14.05;6.65;;;6.60;67.20;;;;;;1793972;80;21193;-75
2021/04/25 00:58:08;;;;;;;12.98;5.70;;;6.60;67.10;;;;;;1783390;80;21154;-75
2021/04/25 01:00:36;;;;;;;14.07;6.10;;;6.60;68.00;;;;;;1782224;80;21156;-75
2021/04/25 01:03:04;;;;;;;12.37;5.42;;;6.50;68.90;;;;;;1790718;80;21169;-75
2021/04/25 01:05:32;;;;;;;13.30;5.12;;;6.50;68.60;;;;;;1793241;80;21141;-76
2021/04/25 01:08:00;;;;;;;15.20;6.60;;;6.50;67.20;;;;;;1774111;80;21173;-75
2021/04/25 01:10:28;;;;;;;12.60;6.78;;;6.60;67.30;;;;;;1793438;80;21184;-75
2021/04/25 01:12:56;;;;;;;14.70;6.97;;;6.50;66.90;;;;;;1786021;80;21610;-75
2021/04/25 01:15:24;;;;;;;15.95;7.72;;;6.60;66.90;;;;;;1780562;80;21125;-75
2021/04/25 01:17:52;;;;;;;17.37;8.45;;;6.60;67.00;;;;;;1756192;80;21152;-74
2021/04/25 01:20:22;;;;;;;20.23;8.38;;;6.70;67.00;;;;;;1794235;80;21626;-74
2021/04/25 01:22:51;;;;;;;21.80;9.10;;;6.80;67.40;;;;;;1792133;80;21164;-75
2021/04/25 01:25:23;;;;;;;20.97;9.45;;;6.80;66.90;;;;;;1771084;80;21609;-74
2021/04/25 01:27:51;;;;;;;23.32;9.85;;;6.80;67.30;;;;;;1772578;80;21318;-74
2021/04/25 01:30:27;;;;;;;19.20;9.90;;;6.90;66.50;;;;;;1785658;80;21176;-74
2021/04/25 01:32:56;;;;;;;16.82;9.65;;;6.90;65.70;;;;;;1789152;80;21164;-75
2021/04/25 01:35:26;;;;;;;17.62;9.70;;;6.90;65.50;;;;;;1779894;80;21172;-75
2021/04/25 01:37:57;;;;;;;16.35;8.45;;;6.80;65.10;;;;;;1793306;80;21160;-75
2021/04/25 01:40:27;;;;;;;14.55;7.75;;;6.80;65.80;;;;;;1784825;80;21581;-75
2021/04/25 01:42:57;;;;;;;15.90;6.92;;;6.90;65.60;;;;;;1791503;80;21212;-75
2021/04/25 01:45:24;;;;;;;15.55;6.58;;;6.80;64.80;;;;;;1778444;80;21164;-75
2021/04/25 01:47:56;;;;;;;14.47;6.25;;;6.80;65.20;;;;;;1793438;80;21184;-75
2021/04/25 01:50:27;;;;;;;11.73;5.78;;;6.80;65.30;;;;;;1792578;80;21130;-74
2021/04/25 01:52:55;;;;;;;13.75;6.22;;;6.90;65.20;;;;;;1776757;80;21164;-75
2021/04/25 01:55:25;;;;;;;10.35;5.03;;;6.90;64.50;;;;;;1792884;80;21192;-74
2021/04/25 01:57:53;;;;;;;9.78;5.10;;;6.80;64.50;;;;;;1774583;80;21176;-75
2021/04/25 02:00:32;;;;;;;10.82;4.87;;;6.80;64.60;;;;;;1783240;80;21132;-75
2021/04/25 02:03:03;;;;;;;9.38;4.90;;;6.90;65.20;;;;;;1782509;80;21140;-75
2021/04/25 02:05:32;;;;;;;11.20;5.00;;;7.00;64.80;;;;;;1787395;80;21176;-75
2021/04/25 02:08:00;;;;;;;10.82;4.72;;;6.90;65.10;;;;;;1793956;80;21173;-75
2021/04/25 02:10:28;;;;;;;11.90;4.95;;;7.00;64.70;;;;;;1770299;80;21301;-75
2021/04/25 02:12:56;;;;;;;8.43;5.03;;;7.10;64.10;;;;;;1770061;80;21160;-75
2021/04/25 02:15:25;;;;;;;9.43;4.72;;;7.20;63.90;;;;;;1767435;80;21175;-76
2021/04/25 02:17:53;;;;;;;11.12;4.72;;;7.10;63.80;;;;;;1772651;80;21294;-75
2021/04/25 02:20:23;;;;;;;8.25;4.17;;;7.10;64.20;;;;;;1780387;80;21564;-75
2021/04/25 02:22:56;;;;;;;9.70;4.67;;;7.20;63.60;;;;;;1766766;80;21306;-75
2021/04/25 02:25:25;;;;;;;8.18;4.70;;;7.30;63.90;;;;;;1768198;80;21305;-75
2021/04/25 02:27:53;;;;;;;8.63;4.37;;;7.30;63.40;;;;;;1777237;80;21132;-76
2021/04/25 02:30:25;;;;;;;8.30;4.50;;;7.30;63.10;;;;;;1781212;80;21176;-75
2021/04/25 02:32:55;;;;;;;9.25;4.40;;;7.30;63.10;;;;;;1793020;80;21244;-76
2021/04/25 02:35:25;;;;;;;9.18;4.40;;;7.30;63.00;;;;;;1778910;80;21162;-75
2021/04/25 02:37:54;;;;;;;10.25;4.10;;;7.20;65.00;;;;;;1767192;80;21195;-76
2021/04/25 02:40:26;;;;;;;8.28;4.60;;;7.20;64.60;;;;;;1774719;80;21167;-75
2021/04/25 02:42:57;;;;;;;10.80;4.50;;;7.20;64.00;;;;;;1777273;80;21133;-76
2021/04/25 02:45:27;;;;;;;10.35;4.55;;;7.10;63.30;;;;;;1791324;80;21165;-75
2021/04/25 02:48:03;;;;;;;8.25;4.35;;;7.20;63.30;;;;;;1767562;80;21156;-76
2021/04/25 02:50:35;;;;;;;11.10;4.45;;;7.10;63.90;;;;;;1781449;80;21154;-76
2021/04/25 02:53:05;;;;;;;9.55;4.22;;;7.20;64.00;;;;;;1793336;80;21176;-75
2021/04/25 02:55:32;;;;;;;8.08;4.28;;;7.20;64.30;;;;;;1792223;80;21152;-75
2021/04/25 02:58:01;;;;;;;9.30;4.03;;;7.10;65.70;;;;;;1783977;80;21167;-76
2021/04/25 03:00:29;;;;;;;10.03;4.17;;;7.10;64.70;;;;;;1789208;80;21184;-74
2021/04/25 03:02:59;;;;;;;6.90;3.75;;;7.10;64.40;;;;;;1773585;80;21180;-75
2021/04/25 03:05:28;;;;;;;8.25;4.03;;;7.10;63.90;;;;;;1773379;80;21593;-74
2021/04/25 03:07:56;;;;;;;9.85;4.53;;;7.20;64.10;;;;;;1767087;80;21743;-75
2021/04/25 03:10:25;;;;;;;8.03;3.90;;;7.20;63.80;;;;;;1789308;80;21164;-75
2021/04/25 03:12:54;;;;;;;10.10;4.17;;;7.20;63.50;;;;;;1778164;80;21180;-74
2021/04/25 03:15:23;;;;;;;9.30;3.52;;;7.10;63.70;;;;;;1774160;80;21125;-75
2021/04/25 03:17:52;;;;;;;8.68;4.10;;;7.00;64.10;;;;;;1767360;80;21152;-75
2021/04/25 03:20:22;;;;;;;8.80;4.28;;;6.90;64.50;;;;;;1781587;80;21133;-75
2021/04/25 03:22:51;;;;;;;9.93;4.12;;;6.80;64.50;;;;;;1792839;80;21204;-74
2021/04/25 03:25:19;;;;;;;9.55;4.33;;;6.90;64.20;;;;;;1783796;80;21160;-75
2021/04/25 03:27:48;;;;;;;9.70;4.30;;;6.80;64.40;;;;;;1770369;80;21347;-74
2021/04/25 03:30:18;;;;;;;7.30;4.00;;;6.80;65.20;;;;;;1778502;80;21168;-76
2021/04/25 03:32:47;;;;;;;9.48;4.50;;;6.70;65.60;;;;;;1776048;80;21235;-74
2021/04/25 03:35:17;;;;;;;10.70;4.37;;;6.80;65.90;;;;;;1777757;80;21169;-74
2021/04/25 03:37:46;;;;;;;9.93;4.22;;;6.70;64.90;;;;;;1780337;80;21137;-75
2021/04/25 03:40:18;;;;;;;8.20;4.20;;;6.80;64.90;;;;;;1775032;80;21309;-75
2021/04/25 03:42:48;;;;;;;12.80;4.58;;;6.80;66.70;;;;;;1784478;80;21272;-74
2021/04/25 03:45:18;;;;;;;9.10;4.37;;;6.80;65.20;;;;;;1779708;80;21176;-75
2021/04/25 03:47:50;;;;;;;8.93;4.05;;;6.90;64.90;;;;;;1780924;80;21184;-74
2021/04/25 03:50:23;;;;;;;9.70;3.75;;;6.90;64.40;;;;;;1775944;80;21377;-75
2021/04/25 03:52:51;;;;;;;12.95;4.67;;;6.90;64.80;;;;;;1767111;80;21262;-75
2021/04/25 03:55:21;;;;;;;7.60;4.00;;;6.90;65.50;;;;;;1776203;80;21563;-74
2021/04/25 03:57:49;;;;;;;14.10;3.95;;;6.90;64.40;;;;;;1767259;80;21703;-74
2021/04/25 04:00:19;;;;;;;10.15;4.28;;;7.10;64.50;;;;;;1772218;80;21137;-74
2021/04/25 04:02:47;;;;;;;7.75;4.00;;;7.00;64.20;;;;;;1787197;80;21678;-74
2021/04/25 04:05:15;;;;;;;8.33;3.95;;;6.90;64.40;;;;;;1772312;80;21323;-74
2021/04/25 04:07:43;;;;;;;7.92;4.45;;;6.90;64.30;;;;;;1787412;80;21176;-74
2021/04/25 04:10:12;;;;;;;9.98;4.37;;;6.90;64.50;;;;;;1772051;80;21715;-74
2021/04/25 04:12:41;;;;;;;8.98;4.28;;;6.90;65.10;;;;;;1771858;80;21159;-74
2021/04/25 04:15:10;;;;;;;10.48;3.80;;;6.90;64.70;;;;;;1767453;80;21320;-74
2021/04/25 04:17:38;;;;;;;12.05;4.72;;;6.90;65.10;;;;;;1782778;80;21630;-74
2021/04/25 04:20:07;;;;;;;9.80;4.65;;;6.80;64.60;;;;;;1787851;80;21591;-74
2021/04/25 04:22:35;;;;;;;8.78;4.60;;;6.80;64.90;;;;;;1788085;80;21595;-74
2021/04/25 04:25:04;;;;;;;7.55;4.30;;;6.80;64.50;;;;;;1790244;80;21598;-74
2021/04/25 04:27:32;;;;;;;12.15;5.03;;;6.80;65.50;;;;;;1767541;80;21175;-75
2021/04/25 04:30:00;;;;;;;9.25;5.28;;;6.80;65.10;;;;;;1767654;80;21168;-76
2021/04/25 04:32:28;;;;;;;9.05;4.33;;;6.70;64.70;;;;;;1788372;80;21583;-76
2021/04/25 04:34:57;;;;;;;9.10;4.75;;;6.60;65.60;;;;;;1791959;80;21141;-76
2021/04/25 04:37:25;;;;;;;9.08;4.62;;;6.60;65.70;;;;;;1783843;80;21164;-76
2021/04/25 04:39:53;;;;;;;8.70;4.17;;;6.60;66.10;;;;;;1794318;80;21172;-76
2021/04/25 04:42:20;;;;;;;8.50;4.25;;;6.70;65.50;;;;;;1792143;80;21176;-75
2021/04/25 04:44:49;;;;;;;8.80;4.42;;;6.70;65.70;;;;;;1789077;80;21165;-75
2021/04/25 04:47:17;;;;;;;7.60;4.00;;;6.70;65.00;;;;;;1792938;80;21168;-76
2021/04/25 04:49:44;;;;;;;8.40;4.85;;;6.80;65.30;;;;;;1779785;80;21165;-75
2021/04/25 04:52:12;;;;;;;9.93;4.58;;;6.90;65.10;;;;;;1792659;80;21141;-75
2021/04/25 04:54:42;;;;;;;9.73;4.90;;;6.90;65.30;;;;;;1776197;80;21220;-76
2021/04/25 04:57:11;;;;;;;8.55;4.40;;;7.00;65.40;;;;;;1787742;80;21172;-75
2021/04/25 04:59:38;;;;;;;9.25;4.67;;;6.90;64.40;;;;;;1793707;80;21184;-75
2021/04/25 05:02:06;;;;;;;11.50;4.75;;;7.00;64.00;;;;;;1781779;80;21169;-74
2021/04/25 05:04:34;;;;;;;11.25;4.40;;;7.00;64.30;;;;;;1793166;80;21636;-74
2021/04/25 05:07:02;;;;;;;8.13;4.50;;;7.00;64.10;;;;;;1782121;80;21192;-73
2021/04/25 05:09:30;;;;;;;8.43;4.30;;;7.00;64.00;;;;;;1775816;80;21393;-75
2021/04/25 05:11:58;;;;;;;13.03;6.62;;;7.10;64.00;;;;;;1792145;80;21592;-75
2021/04/25 05:14:26;;;;;;;12.85;4.60;;;7.20;63.20;;;;;;1790950;80;21298;-75
2021/04/25 05:16:53;;;;;;;11.55;4.33;;;7.20;63.60;;;;;;1767924;80;21176;-74
2021/04/25 05:19:21;;;;;;;12.25;4.72;;;7.30;63.60;;;;;;1781645;80;21168;-75
2021/04/25 05:21:48;;;;;;;11.78;4.50;;;7.30;62.40;;;;;;1767753;80;21168;-75
2021/04/25 05:24:16;;;;;;;8.85;4.97;;;7.30;63.00;;;;;;1774735;80;21128;-74
2021/04/25 05:26:44;;;;;;;10.85;4.55;;;7.30;62.90;;;;;;1787900;80;21158;-76
2021/04/25 05:29:12;;;;;;;9.28;4.10;;;7.30;63.00;;;;;;1767147;80;21136;-75
2021/04/25 05:31:41;;;;;;;10.48;4.90;;;7.40;62.70;;;;;;1781387;80;21137;-74
2021/04/25 05:34:08;;;;;;;9.03;4.80;;;7.50;63.00;;;;;;1777468;80;21169;-74
2021/04/25 05:36:36;;;;;;;15.53;5.17;;;7.50;63.20;;;;;;1767774;80;21172;-74
2021/04/25 05:39:06;;;;;;;10.08;4.22;;;7.60;62.90;;;;;;1774191;80;21148;-75
2021/04/25 05:41:33;;;;;;;11.75;4.65;;;7.60;62.90;;;;;;1782821;80;21207;-75
2021/04/25 05:44:01;;;;;;;11.25;4.58;;;7.60;63.40;;;;;;1776944;80;21132;-75
2021/04/25 05:46:29;;;;;;;8.45;4.87;;;7.60;62.70;;;;;;1766725;80;21196;-75
2021/04/25 05:48:57;;;;;;;9.98;4.85;;;7.70;63.60;;;;;;1778706;80;21196;-75
2021/04/25 05:51:26;;;;;;;10.43;4.45;;;7.80;62.10;;;;;;1793165;80;21172;-75
2021/04/25 05:53:54;;;;;;;9.43;3.90;;;7.90;61.40;;;;;;1791962;80;21200;-74
2021/04/25 05:56:22;;;;;;;10.15;4.80;;;8.00;60.20;;;;;;1795140;80;21168;-75
2021/04/25 05:58:50;;;;;;;9.73;4.42;;;8.10;59.20;;;;;;1776158;80;21133;-75
2021/04/25 06:01:18;;;;;;;9.85;4.83;;;8.30;59.40;;;;;;1787908;80;21583;-75
2021/04/25 06:03:45;;;;;;;9.25;4.30;;;8.50;58.70;;;;;;1781717;80;21184;-75
2021/04/25 06:06:14;;;;;;;8.50;4.00;;;8.60;59.00;;;;;;1776443;80;21184;-74
2021/04/25 06:08:43;;;;;;;7.30;4.20;;;8.70;58.50;;;;;;1787629;80;21625;-75
2021/04/25 06:11:12;;;;;;;6.95;3.50;;;8.80;58.50;;;;;;1789915;80;21220;-75
2021/04/25 06:13:39;;;;;;;8.88;4.15;;;8.90;58.10;;;;;;1787158;80;21149;-75
2021/04/25 06:16:07;;;;;;;10.45;4.03;;;9.00;57.20;;;;;;1780748;80;21208;-75
2021/04/25 06:18:35;;;;;;;14.35;5.45;;;9.20;57.80;;;;;;1767814;80;21189;-75
2021/04/25 06:21:03;;;;;;;9.03;4.10;;;9.20;58.30;;;;;;1790185;80;21225;-76
2021/04/25 06:23:31;;;;;;;9.05;4.05;;;9.30;58.10;;;;;;1779149;80;21184;-75
2021/04/25 06:25:59;;;;;;;8.95;4.37;;;9.40;57.40;;;;;;1779869;80;21193;-76
2021/04/25 06:28:27;;;;;;;13.85;4.70;;;9.50;56.30;;;;;;1777135;80;21160;-74
2021/04/25 06:30:57;;;;;;;10.85;4.28;;;9.60;56.30;;;;;;1776075;80;21294;-76
2021/04/25 06:33:25;;;;;;;10.82;4.25;;;9.60;56.20;;;;;;1777699;80;21191;-74
2021/04/25 06:35:53;;;;;;;10.72;4.60;;;9.80;55.70;;;;;;1788433;80;21223;-75
2021/04/25 06:38:21;;;;;;;8.95;5.08;;;9.90;56.10;;;;;;1777824;80;21156;-74
2021/04/25 06:40:49;;;;;;;11.70;5.42;;;10.00;56.70;;;;;;1766999;80;21305;-75
2021/04/25 06:43:18;;;;;;;10.58;5.95;;;10.10;55.80;;;;;;1768711;80;21298;-74
2021/04/25 06:45:46;;;;;;;11.08;5.15;;;10.20;55.90;;;;;;1775951;80;21160;-75
2021/04/25 06:48:16;;;;;;;10.28;5.60;;;10.30;55.50;;;;;;1781881;80;21618;-76
2021/04/25 06:50:44;;;;;;;15.55;6.00;;;10.40;55.20;;;;;;1795085;80;21227;-76
2021/04/25 06:53:11;;;;;;;10.85;5.78;;;10.50;54.40;;;;;;1794428;80;21168;-74
2021/04/25 06:55:39;;;;;;;10.53;5.60;;;10.50;55.20;;;;;;1791452;80;21220;-76
2021/04/25 06:58:07;;;;;;;10.53;5.60;;;10.60;54.80;;;;;;1794295;80;21136;-74
2021/04/25 07:00:34;;;;;;;10.58;5.78;;;10.70;54.70;;;;;;1789894;80;21159;-74
2021/04/25 07:03:03;;;;;;;9.83;5.33;;;10.80;54.10;;;;;;1788227;80;21626;-75
2021/04/25 07:05:31;;;;;;;10.65;5.37;;;10.90;54.40;;;;;;1779309;80;21594;-74
2021/04/25 07:07:59;;;;;;;11.85;5.62;;;11.10;54.20;;;;;;1790056;80;21618;-74
2021/04/25 07:10:28;;;;;;;16.12;6.22;;;11.20;54.00;;;;;;1774631;80;21168;-74
2021/04/25 07:12:56;;;;;;;11.00;6.55;;;11.30;54.00;;;;;;1758827;80;21168;-75
2021/04/25 07:15:24;;;;;;;12.55;6.20;;;11.40;53.00;;;;;;1782689;80;21610;-74
2021/04/25 07:17:52;;;;;;;11.20;6.35;;;11.50;53.00;;;;;;1792362;80;21185;-75
2021/04/25 07:20:20;;;;;;;11.75;6.65;;;11.70;53.50;;;;;;1777673;80;21160;-74
2021/04/25 07:22:47;;;;;;;12.00;6.47;;;11.80;52.50;;;;;;1782138;80;21165;-74
2021/04/25 07:25:15;;;;;;;14.87;5.70;;;12.00;52.60;;;;;;1768954;80;21732;-74
2021/04/25 07:27:44;;;;;;;10.58;5.15;;;12.00;51.80;;;;;;1793801;80;21172;-75
2021/04/25 07:30:14;;;;;;;13.43;5.58;;;12.20;51.20;;;;;;1790986;80;21575;-75
2021/04/25 07:32:42;;;;;;;15.05;6.40;;;12.40;50.80;;;;;;1772139;80;21615;-75
2021/04/25 07:35:11;;;;;;;11.30;6.22;;;12.60;50.70;;;;;;1782468;80;21172;-75
2021/04/25 07:37:39;;;;;;;14.28;5.80;;;12.80;49.50;;;;;;1793481;80;21141;-74
2021/04/25 07:40:09;;;;;;;9.93;5.03;;;13.00;50.00;;;;;;1788494;80;21163;-75
2021/04/25 07:42:39;;;;;;;9.03;5.17;;;13.20;48.90;;;;;;1788111;80;21161;-76
2021/04/25 07:45:12;;;;;;;11.20;5.60;;;13.40;49.50;;;;;;1792321;80;21172;-75
2021/04/25 07:47:42;;;;;;;12.80;5.47;;;13.70;49.20;;;;;;1773631;80;21155;-75
2021/04/25 07:50:13;;;;;;;12.98;5.70;;;13.90;48.60;;;;;;1785939;80;21153;-76
2021/04/25 07:52:43;;;;;;;12.90;5.28;;;14.20;47.20;;;;;;1783201;80;21169;-76
2021/04/25 07:55:12;;;;;;;10.85;5.40;;;14.50;47.20;;;;;;1779873;80;21614;-76
2021/04/25 07:57:40;;;;;;;12.25;6.00;;;14.90;48.10;;;;;;1780877;80;21145;-76
2021/04/25 08:00:11;;;;;;;11.80;5.78;;;15.20;47.00;;;;;;1788791;80;21171;-76
2021/04/25 08:02:40;;;;;;;10.15;6.12;;;15.90;46.80;;;;;;1781457;80;21132;-76
2021/04/25 08:05:09;;;;;;;15.72;5.40;;;16.60;45.30;;;;;;1768095;80;21155;-76
2021/04/25 08:07:37;;;;;;;9.53;5.15;;;17.40;44.60;;;;;;1772024;80;21147;-77
2021/04/25 08:10:09;;;;;;;8.65;5.03;;;18.20;42.60;;;;;;1776538;80;21184;-76
2021/04/25 08:12:37;;;;;;;9.18;4.80;;;18.80;39.90;;;;;;1776637;80;21184;-77
2021/04/25 08:15:06;;;;;;;12.07;5.25;;;19.40;37.60;;;;;;1774143;80;21132;-76
2021/04/25 08:17:34;;;;;;;9.28;4.95;;;19.90;36.70;;;;;;1777066;80;21136;-76
2021/04/25 08:20:03;;;;;;;9.18;4.90;;;20.30;34.30;;;;;;1767538;80;21697;-76
2021/04/25 08:22:31;;;;;;;10.85;5.55;;;20.50;33.60;;;;;;1789232;80;21203;-76
2021/04/25 08:25:00;;;;;;;7.90;4.17;;;20.80;32.80;;;;;;1788430;80;21160;-76
2021/04/25 08:27:28;;;;;;;10.30;5.20;;;20.90;33.90;;;;;;1788853;80;21192;-75
2021/04/25 08:29:55;;;;;;;7.97;5.08;;;21.20;33.30;;;;;;1784071;80;21171;-76
2021/04/25 08:32:23;;;;;;;7.90;4.45;;;21.40;33.30;;;;;;1784144;80;21169;-75
2021/04/25 08:34:51;;;;;;;8.13;4.90;;;21.70;32.70;;;;;;1793699;80;21214;-76
2021/04/25 08:37:18;;;;;;;9.75;5.05;;;21.90;30.20;;;;;;1771242;80;21175;-76
2021/04/25 08:39:46;;;;;;;10.70;4.70;;;21.90;30.80;;;;;;1793930;80;21193;-76
2021/04/25 08:42:14;;;;;;;9.45;4.45;;;22.00;30.80;;;;;;1782399;80;21188;-77
2021/04/25 08:44:43;;;;;;;9.28;4.83;;;21.90;30.90;;;;;;1770861;80;22261;-76
2021/04/25 08:47:13;;;;;;;9.03;5.00;;;21.80;31.40;;;;;;1783549;80;21184;-74
2021/04/25 08:49:43;;;;;;;8.25;4.67;;;21.50;31.30;;;;;;1774805;80;21195;-75
2021/04/25 08:52:11;;;;;;;11.45;4.40;;;21.20;32.90;;;;;;1770569;80;21320;-76
2021/04/25 08:54:41;;;;;;;7.40;4.25;;;21.20;32.50;;;;;;1767364;80;21622;-75
2021/04/25 08:57:09;;;;;;;6.22;3.77;;;21.20;33.50;;;;;;1787366;80;21152;-76
2021/04/25 08:59:36;;;;;;;8.35;4.40;;;21.20;31.70;;;;;;1793849;80;21169;-76
2021/04/25 09:02:04;;;;;;;8.78;4.60;;;21.20;30.60;;;;;;1793294;80;21149;-74
2021/04/25 09:04:32;;;;;;;9.68;4.10;;;20.90;31.10;;;;;;1788086;80;21203;-75
2021/04/25 09:07:04;;;;;;;8.30;4.40;;;20.90;31.80;;;;;;1769383;80;21163;-75
2021/04/25 09:09:46;;;;;;;9.60;4.50;;;20.30;31.90;;;;;;1778831;80;21140;-76
2021/04/25 09:12:40;;;;;;;11.55;4.33;;;19.90;32.10;;;;;;1772004;80;21161;-75
2021/04/25 09:15:16;;;;;;;6.65;4.10;;;19.70;34.20;;;;;;1776927;80;21586;-74
2021/04/25 09:17:52;;;;;;;8.15;3.92;;;19.30;33.10;;;;;;1776950;80;21160;-77
2021/04/25 09:20:39;;;;;;;6.85;3.60;;;19.30;34.90;;;;;;1767415;80;21129;-77
2021/04/25 09:23:12;;;;;;;6.22;3.58;;;19.30;34.30;;;;;;1767827;80;21168;-75
2021/04/25 09:25:43;;;;;;;5.95;3.35;;;19.20;33.10;;;;;;1785011;80;21203;-75
2021/04/25 09:28:19;;;;;;;6.22;3.30;;;19.20;33.50;;;;;;1785603;80;21160;-74
2021/04/25 09:30:59;;;;;;;7.33;3.35;;;19.10;34.60;;;;;;1772926;80;21195;-75
2021/04/25 09:33:38;;;;;;;6.47;3.50;;;19.10;33.20;;;;;;1781889;80;21175;-74
2021/04/25 09:36:10;;;;;;;7.60;3.72;;;19.00;33.40;;;;;;1773412;80;21139;-75
2021/04/25 09:38:37;;;;;;;5.60;3.40;;;18.80;34.70;;;;;;1786341;80;21163;-75
2021/04/25 09:41:05;;;;;;;8.00;3.60;;;18.50;34.20;;;;;;1767842;80;21288;-75
2021/04/25 09:43:40;;;;;;;7.33;3.50;;;18.40;34.80;;;;;;1767828;80;21325;-75
2021/04/25 09:46:08;;;;;;;6.73;3.03;;;18.10;34.40;;;;;;1787546;80;21184;-75
2021/04/25 09:48:36;;;;;;;8.48;3.72;;;18.10;35.10;;;;;;1792672;80;22034;-74
2021/04/25 09:51:18;;;;;;;8.25;3.65;;;18.00;35.00;;;;;;1777242;80;21152;-76
2021/04/25 09:54:00;;;;;;;6.85;3.58;;;18.00;36.50;;;;;;1787468;80;21169;-76
2021/04/25 09:56:38;;;;;;;6.65;3.40;;;18.00;35.80;;;;;;1773265;80;21176;-75
2021/04/25 09:59:08;;;;;;;7.12;3.92;;;18.10;37.00;;;;;;1784176;80;21591;-73
2021/04/25 10:01:41;;;;;;;7.20;4.17;;;18.20;36.60;;;;;;1774689;80;21151;-73
2021/04/25 10:04:37;;;;;;;7.97;4.00;;;18.20;36.90;;;;;;1787481;80;21192;-69
2021/04/25 10:07:07;;;;;;;6.85;4.08;;;18.30;37.30;;;;;;1789175;80;21212;-69
2021/04/25 10:09:36;;;;;;;10.45;4.10;;;18.30;36.10;;;;;;1781288;80;21191;-69
2021/04/25 10:12:04;;;;;;;10.88;4.10;;;18.10;36.20;;;;;;1766770;80;21606;-71
2021/04/25 10:14:34;;;;;;;7.45;3.80;;;18.00;35.70;;;;;;1767281;80;21598;-68
2021/04/25 10:17:03;;;;;;;7.72;4.05;;;17.80;35.80;;;;;;1766820;80;21199;-70
2021/04/25 10:19:32;;;;;;;7.40;4.03;;;17.80;37.50;;;;;;1772513;80;21177;-69
2021/04/25 10:22:02;;;;;;;6.00;3.80;;;17.80;37.20;;;;;;1781735;80;21168;-69
2021/04/25 10:24:30;;;;;;;7.37;3.92;;;17.80;37.40;;;;;;1791262;80;21180;-70
2021/04/25 10:27:08;;;;;;;6.87;3.25;;;17.70;35.90;;;;;;1779922;80;21210;-69
2021/04/25 10:29:47;;;;;;;6.05;3.40;;;17.50;36.60;;;;;;1773810;80;21158;-70
2021/04/25 10:32:19;;;;;;;7.05;3.50;;;17.40;37.30;;;;;;1780555;80;21200;-69
2021/04/25 10:34:50;;;;;;;7.00;3.77;;;17.30;37.40;;;;;;1792584;80;21141;-69
2021/04/25 10:37:18;;;;;;;7.03;3.30;;;17.30;37.00;;;;;;1787896;80;21137;-70
2021/04/25 10:39:55;;;;;;;7.40;3.52;;;17.30;37.50;;;;;;1782071;80;21630;-69
2021/04/25 10:42:35;;;;;;;4.37;3.00;;;17.30;37.70;;;;;;1773564;80;21185;-70
2021/04/25 10:45:18;;;;;;;5.87;2.70;;;17.30;36.60;;;;;;1771938;80;21118;-69
2021/04/25 10:47:47;;;;;;;6.17;2.80;;;17.30;34.70;;;;;;1779037;80;21610;-69
2021/04/25 10:50:24;;;;;;;4.53;2.75;;;17.30;35.80;;;;;;1767299;80;21168;-70
2021/04/25 10:52:52;;;;;;;5.30;3.00;;;17.30;35.60;;;;;;1787398;80;21183;-68
2021/04/25 10:55:28;;;;;;;5.58;2.90;;;17.10;33.80;;;;;;1792403;80;21164;-69
2021/04/25 10:58:00;;;;;;;5.08;2.70;;;17.10;35.30;;;;;;1788002;80;21168;-70
2021/04/25 11:00:40;;;;;;;6.15;2.77;;;17.10;35.40;;;;;;1791317;80;21599;-67
2021/04/25 11:03:25;;;;;;;6.95;2.40;;;17.10;34.40;;;;;;1777517;80;21184;-68
2021/04/25 11:05:53;;;;;;;4.97;2.52;;;17.10;34.30;;;;;;1793702;80;21626;-70
2021/04/25 11:08:39;;;;;;;4.08;2.33;;;17.10;34.20;;;;;;1788424;80;21588;-71
2021/04/25 11:11:11;;;;;;;4.87;2.70;;;17.10;33.20;;;;;;1793808;80;21232;-69
2021/04/25 11:13:46;;;;;;;6.75;2.40;;;17.10;33.10;;;;;;1783627;80;21180;-70
2021/04/25 11:16:20;;;;;;;6.80;2.30;;;17.20;33.60;;;;;;1773474;80;21159;-69
2021/04/25 11:19:12;;;;;;;4.87;2.52;;;17.30;33.00;;;;;;1773837;80;21200;-70
2021/04/25 11:21:53;;;;;;;4.72;2.25;;;17.30;33.00;;;;;;1766565;80;21167;-69
2021/04/25 11:24:28;;;;;;;5.10;2.20;;;17.20;32.10;;;;;;1795257;80;21594;-70
2021/04/25 11:27:00;;;;;;;4.60;2.60;;;17.20;32.50;;;;;;1793613;80;21160;-69
2021/04/25 11:29:41;;;;;;;5.75;2.75;;;17.20;33.50;;;;;;1779950;80;21154;-70
2021/04/25 11:32:29;;;;;;;6.20;2.42;;;17.20;31.60;;;;;;1778766;80;21177;-70
2021/04/25 11:35:04;;;;;;;5.53;2.47;;;17.20;32.80;;;;;;1778832;80;21813;-70
2021/04/25 11:37:32;;;;;;;7.25;2.52;;;17.30;32.70;;;;;;1786254;80;21202;-68
2021/04/25 11:40:07;;;;;;;6.30;2.40;;;17.30;33.60;;;;;;1768359;80;21302;-69
2021/04/25 11:42:49;;;;;;;5.00;2.45;;;17.30;32.90;;;;;;1777159;80;21536;-69
2021/04/25 11:45:25;;;;;;;8.20;2.75;;;17.20;31.90;;;;;;1777698;80;21136;-70
2021/04/25 11:48:01;;;;;;;5.60;2.30;;;17.20;32.40;;;;;;1785093;80;21236;-70
2021/04/25 11:50:37;;;;;;;5.35;2.33;;;17.10;31.60;;;;;;1794437;80;21172;-71
2021/04/25 11:53:05;;;;;;;5.58;2.70;;;17.10;32.20;;;;;;1788374;80;21140;-69
2021/04/25 11:55:33;;;;;;;4.20;2.70;;;17.10;33.70;;;;;;1776749;80;21200;-70
2021/04/25 11:58:01;;;;;;;5.28;3.15;;;17.10;34.70;;;;;;1767539;80;21302;-71
2021/04/25 12:00:35;;;;;;;6.95;2.75;;;17.10;35.20;;;;;;1772370;80;21373;-70
2021/04/25 12:03:05;;;;;;;9.13;3.00;;;17.10;35.60;;;;;;1793249;80;21173;-70
2021/04/25 12:05:38;;;;;;;6.40;3.05;;;17.10;34.40;;;;;;1774771;80;21161;-70
2021/04/25 12:08:08;;;;;;;4.40;2.40;;;17.00;35.20;;;;;;1793273;80;21125;-70
2021/04/25 12:10:50;;;;;;;6.37;2.77;;;17.00;34.60;;;;;;1793031;80;21137;-70
2021/04/25 12:13:22;;;;;;;8.13;2.72;;;17.00;35.50;;;;;;1788423;80;21185;-68
2021/04/25 12:16:04;;;;;;;6.37;2.80;;;17.00;34.80;;;;;;1779882;80;21642;-69
2021/04/25 12:18:38;;;;;;;8.25;3.15;;;17.00;34.80;;;;;;1780396;80;21200;-71
2021/04/25 12:21:10;;;;;;;4.78;2.80;;;16.90;34.70;;;;;;1779646;80;21183;-69
2021/04/25 12:23:45;;;;;;;9.53;3.55;;;16.90;35.00;;;;;;1793000;80;21164;-69
2021/04/25 12:26:16;;;;;;;6.30;3.57;;;16.90;34.90;;;;;;1794618;80;21192;-70
2021/04/25 12:28:48;;;;;;;6.25;2.70;;;16.90;35.60;;;;;;1781967;80;21823;-70
2021/04/25 12:31:21;;;;;;;5.08;2.42;;;17.00;36.10;;;;;;1767910;80;21724;-69
2021/04/25 12:33:56;;;;;;;7.30;2.65;;;17.00;34.60;;;;;;1793538;80;21173;-70
2021/04/25 12:36:29;;;;;;;4.65;2.20;;;17.10;34.40;;;;;;1793367;80;21168;-70
2021/04/25 12:39:05;;;;;;;5.00;2.52;;;17.10;34.70;;;;;;1783164;80;21164;-68
2021/04/25 12:41:42;;;;;;;4.70;2.43;;;17.20;34.70;;;;;;1769757;80;21294;-69
2021/04/25 12:44:11;;;;;;;6.08;2.40;;;17.20;34.30;;;;;;1771730;80;21583;-70
2021/04/25 12:46:39;;;;;;;4.92;2.30;;;17.30;34.00;;;;;;1787995;80;21169;-70
2021/04/25 12:49:11;;;;;;;7.58;2.50;;;17.40;34.30;;;;;;1794397;80;21303;-70
2021/04/25 12:51:47;;;;;;;6.05;2.20;;;17.40;33.70;;;;;;1786424;80;21172;-70
2021/04/25 12:54:18;;;;;;;6.55;2.52;;;17.50;32.60;;;;;;1777982;80;21137;-70
2021/04/25 12:56:53;;;;;;;4.87;2.20;;;17.50;33.90;;;;;;1781337;80;21678;-71
2021/04/25 12:59:33;;;;;;;4.28;2.27;;;17.50;33.50;;;;;;1767159;80;21602;-71
2021/04/25 13:02:09;;;;;;;4.67;2.30;;;17.60;33.30;;;;;;1776752;80;21196;-68
2021/04/25 13:04:47;;;;;;;5.85;2.60;;;17.60;32.70;;;;;;1778864;80;21152;-68